CDT,Max TemperatureF,Mean TemperatureF,Min TemperatureF,Max Dew PointF,MeanDew PointF,Min DewpointF,Max Humidity, Mean Humidity, Min Humidity, Max Sea Level PressureIn, Mean Sea Level PressureIn, Min Sea Level PressureIn, Max VisibilityMiles, Mean VisibilityMiles, Min VisibilityMiles, Max Wind SpeedMPH, Mean Wind SpeedMPH, Max Gust SpeedMPH,PrecipitationIn, CloudCover, Events, WindDirDegrees
2012-10-1,69,52,35,49,42,33,95,71,37,29.95,29.89,29.83,10,10,7,12,5,,0.00,1,,236
2012-10-2,66,53,40,48,40,33,99,68,30,29.98,29.93,29.89,10,10,5,9,4,,0.00,0,,55
2012-10-3,70,52,33,50,42,34,100,75,34,30.00,29.97,29.93,10,7,0,9,3,,0.00,3,Fog-Snow,159
2012-10-4,63,51,39,48,39,28,95,69,40,29.99,29.92,29.84,10,10,5,24,7,33,0.00,1,,234
2012-10-5,45,40,35,28,25,22,69,58,46,29.98,29.96,29.92,10,10,10,23,16,37,0.00,7,,270
2012-10-6,40,36,31,32,27,21,95,72,49,30.16,30.07,29.94,10,9,2,21,12,25,0.00,8,Snow,310
2012-10-7,47,38,28,26,20,14,81,55,27,30.15,30.06,29.98,10,10,10,16,6,22,0.00,3,,259
2012-10-8,54,40,27,33,26,17,68,51,42,29.97,29.83,29.71,10,10,10,24,12,38,0.00,4,Rain,198
2012-10-9,51,42,34,45,38,31,96,85,46,29.79,29.73,29.68,10,9,4,18,11,28,0.16,7,Rain,240
2012-10-10,42,36,29,32,24,19,96,68,41,30.02,29.94,29.79,10,10,2,21,13,32,0.00,6,Snow,281
2012-10-11,47,37,27,33,25,17,77,60,30,30.29,30.02,29.83,10,10,10,24,10,29,0.00,5,Rain,290
2012-10-12,47,32,18,29,21,16,95,66,32,30.43,30.33,30.19,10,10,10,14,4,17,0.00,0,,195
2012-10-13,45,38,32,45,39,29,100,97,86,30.18,29.90,29.73,10,5,2,15,8,20,0.38,8,Rain,162
2012-10-14,45,42,39,45,42,37,99,96,90,29.75,29.66,29.56,10,8,2,20,10,29,0.81,8,Rain,14
2012-10-15,53,44,35,37,34,32,92,74,44,29.90,29.85,29.73,10,10,10,20,10,25,0.00,3,,332
2012-10-16,59,48,37,45,41,34,92,76,53,29.87,29.66,29.48,10,10,7,20,7,25,0.00,5,Rain,160
2012-10-17,65,54,43,53,48,43,100,88,57,29.47,29.36,29.24,10,6,0,20,7,23,0.28,5,Fog-Rain,149
2012-10-18,48,44,40,47,43,39,99,96,87,29.42,29.25,29.14,10,7,1,13,7,17,0.24,8,Rain,205
2012-10-19,47,43,39,42,40,38,98,92,79,29.63,29.55,29.44,10,10,5,15,7,,0.01,7,Rain,47
2012-10-20,49,42,35,43,41,35,100,90,73,29.87,29.76,29.63,10,10,3,8,6,,0.00,7,,312
2012-10-21,56,43,30,45,38,30,100,81,56,29.98,29.94,29.87,10,7,0,12,3,16,0.00,2,Fog,152
2012-10-22,59,49,39,47,45,39,100,82,58,30.02,29.98,29.94,10,8,2,17,5,22,0.06,6,Rain,79
2012-10-23,55,51,47,55,50,45,100,95,82,29.98,29.91,29.85,10,4,0,14,8,18,0.01,8,Fog-Rain,114
2012-10-24,64,60,55,63,59,55,100,99,94,29.90,29.83,29.72,7,1,0,17,8,23,0.01,8,Fog,142
2012-10-25,64,48,32,63,50,28,99,94,83,29.98,29.68,29.50,10,7,2,25,11,34,1.00,8,Rain,243
2012-10-26,37,33,29,29,25,21,90,73,61,30.30,30.20,29.99,10,10,10,18,11,24,0.00,5,,280
2012-10-27,39,32,25,26,20,13,91,62,34,30.33,30.29,30.27,10,10,10,13,5,17,0.00,2,,307
2012-10-28,42,33,24,27,23,18,97,73,39,30.37,30.33,30.30,10,10,10,5,0,,0.00,0,,59
2012-10-29,45,34,22,29,25,21,96,75,43,30.36,30.30,30.19,10,10,10,10,2,,0.00,0,,12
2012-10-30,38,34,29,28,23,18,88,67,45,30.18,30.00,29.88,10,10,10,25,16,34,0.00,0,,360
2012-10-31,41,34,28,28,23,13,85,67,44,29.87,29.84,29.81,10,10,10,18,14,26,0.00,3,,338